עמוד ראשי
METAR-TAF:

METAR-TAF

שדות תעופה :

Ormond Beach Municipal Airport

Ormond Beach, פלורידה, ארצות הברית

קו רוחב: 29-18-04N, קו אורך: 081-06-49W, גובה: 9מטר

תצפית מזג אוויר נוכחית

הדו"ח נערך לפני 12 שעות ו 11דקות, בשעה 22:50 UTC
רוח 10קשר מכיוון צפון-מזרח עם משבים עד 15קשר
טמפרטורת 29 צלסיוס
לחות 79%
לחץ 1012 hPa
ראות: 11.3קילומטר
מעט עננים בגובה 2200רגל

METAR: KOMN 142250Z 05010G15KT 7SM FEW022 29/25 A2988 RMK LAST

זמן: 07:01 (11:01 UTC)


TAF: חסר

תצפיות ותחזיות מזג אוויר לגבי יותר מ- 4,000 שדות תעופה ברחבי העולם. דוחות METAR ו- TAF.

התחנות הזמינות מסומנות בנקודות צהובות ואדומות על גבי המפה.

העבר את העכבר לנקודה הצבעונית על מנת לראות את שם התחנה.

לאחר מכן, לחץ כדי לראות את תוכן ואת תחזיות מזג האוויר.

כדי לשנות את המפה: לחץ על הכפתורים הירוקים עם הפלוס השחור כדי להתקרב; על הכפתור הירוק עם המקף כדי להתרחק; או בחיצים הירוקים למפות סמוכות.


METAR-TAF: